Flight Track Log - Related Links

Times and Time Zones

All times are in EDT time to prevent confusion due to time zone crossing. See the ASQ5874 flight status page for this flight to view local times or setup timezone preferences in your user account.

Time Position Orientation Groundspeed Altitude Reporting Facility
EDT Latitude Longitude Course Direction KTS MPH feet Rate Location/Type
Sat 11:02:41 40.9017 -96.7589 10° North 221 254 3,400  Level Minneapolis Center
Sat 11:03:15 40.9325 -96.7347 31° Northeast 226 260 4,200 1,475 Climbing Minneapolis Center
Sat 11:03:42 40.9386 -96.6778 82° East 274 315 4,900 1,065 Climbing Minneapolis Center
Sat 11:04:17 40.9606 -96.6400 52° Northeast 266 306 5,300 1,600 Climbing Minneapolis Center
Sat 11:04:42 40.9700 -96.5753 79° East 305 351 6,500 2,032 Climbing Minneapolis Center
Sat 11:05:00 41.1430 -96.3495 44° Northeast  Level FlightAware Approximate
Sat 11:05:19 40.9886 -96.5339 59° Northeast 296 341 7,400  Level Minneapolis Center
Sat 11:06:00 41.2187 -96.2523 44° Northeast  Level FlightAware Approximate
Sat 11:06:21 41.0242 -96.4069 70° East 306 352 9,700  Level Minneapolis Center
Sat 11:07:00 41.2909 -96.1504 47° Northeast  Level FlightAware Approximate
Sat 11:07:23 41.0539 -96.2983 70° East 312 359 11,500  Level Minneapolis Center
Sat 11:08:24 41.0844 -96.1825 71° East 327 376 12,900 1,610 Climbing Minneapolis Center
Sat 11:09:26 41.1169 -96.0642 70° East 341 392 14,800 1,790 Climbing Minneapolis Center
Sat 11:10:28 41.1417 -95.9458 74° East 340 391 16,600 1,694 Climbing Minneapolis Center
Sat 11:11:30 41.1561 -95.8025 82° East 343 395 18,300 1,366 Climbing Minneapolis Center
Sat 11:12:31 41.1722 -95.6753 80° East 348 400 19,400 1,073 Climbing Minneapolis Center
Sat 11:13:33 41.1997 -95.5436 74° East 360 414 20,500 1,065 Climbing Minneapolis Center
Sat 11:14:35 41.2361 -95.4114 70° East 380 437 21,600 1,016 Climbing Minneapolis Center
Sat 11:15:37 41.2731 -95.2756 70° East 391 450 22,600 1,016 Climbing Minneapolis Center
Sat 11:16:39 41.3108 -95.1356 70° East 400 460 23,700 1,122 Climbing Minneapolis Center
Sat 11:17:40 41.3556 -94.9667 71° East 404 465 24,900 1,122 Climbing Minneapolis Center
Sat 11:18:42 41.3931 -94.8242 71° East 407 468 26,000 1,161 Climbing Minneapolis Center
Sat 11:19:44 41.4319 -94.6836 70° East 405 466 27,300 1,161 Climbing Minneapolis Center
Sat 11:20:46 41.4697 -94.5447 70° East 399 459 28,400 829 Climbing Minneapolis Center
Sat 11:21:47 41.5061 -94.4017 71° East 405 466 29,000 293 Climbing Minneapolis Center
Sat 11:22:49 41.5461 -94.2494 71° East 429 494 29,000  Level Minneapolis Center
Sat 11:23:51 41.5900 -94.0772 71° East 453 521 29,000 387 Level Minneapolis Center
Sat 11:24:53 41.6325 -93.9122 71° East 466 536 29,800 1,016 Climbing Minneapolis Center
Sat 11:25:55 41.6753 -93.7503 70° East 467 537 31,100 1,268 Climbing Minneapolis Center
Sat 11:26:56 41.7144 -93.5936 71° East 451 519 32,400 927 Climbing Minneapolis Center
Sat 11:27:58 41.7622 -93.4053 71° East 447 514 33,000 435 Climbing Minneapolis Center
Sat 11:29:00 41.8039 -93.2394 71° East 462 532 33,300 871 Climbing Minneapolis Center
Sat 11:30:02 41.8456 -93.0744 71° East 470 541 34,800 1,452 Climbing Minneapolis Center
Sat 11:31:04 41.8842 -92.9153 72° East 460 529 36,300 1,319 Climbing Minneapolis Center
Sat 11:31:33 41.9069 -92.8239 71° East 437 503 36,800 467 Climbing Chicago Center
Sat 11:32:34 41.9431 -92.6708 72° East 434 499 37,000 98 Climbing Chicago Center
Sat 11:33:36 41.9825 -92.5097 72° East 451 519 37,000  Level Chicago Center
Sat 11:34:38 42.0236 -92.3428 72° East 469 540 37,000  Level Chicago Center
Sat 11:35:39 42.0647 -92.1711 72° East 482 555 37,000  Level Chicago Center
Sat 11:36:41 42.1058 -91.9964 72° East 495 570 37,000  Level Chicago Center
Sat 11:37:43 42.1550 -91.7850 73° East 498 573 37,000  Level Chicago Center
Sat 11:38:44 42.1956 -91.6119 72° East 494 568 37,000  Level Chicago Center
Sat 11:39:46 42.2353 -91.4408 73° East 490 564 37,000 -677 Level Chicago Center
Sat 11:40:48 42.2747 -91.2678 73° East 490 564 35,600 -1,415 Descending Chicago Center
Sat 11:41:49 42.3144 -91.0961 73° East 487 560 34,100 -1,268 Descending Chicago Center
Sat 11:42:51 42.3600 -90.8922 73° East 482 555 33,000 -581 Descending Chicago Center
Sat 11:43:53 42.3964 -90.7250 74° East 473 544 32,900 -341 Descending Chicago Center
Sat 11:44:54 42.4250 -90.5483 78° East 489 563 32,300 -488 Descending Chicago Center
Sat 11:45:56 42.4961 -90.3978 57° Northeast 483 556 31,900 -1,065 Descending Chicago Center
Sat 11:46:58 42.5739 -90.2583 53° Northeast 475 547 30,100 -2,274 Descending Chicago Center
Sat 11:48:00 42.7039 -90.1347 35° Northeast 480 552 27,200 -2,129 Descending Chicago Center
Sat 11:49:02 42.7786 -90.0039 52° Northeast 455 524 25,700 -1,073 Descending Chicago Center
Sat 11:50:03 42.7703 -89.8542 94° East 396 456 25,000 -683 Descending Chicago Center
Sat 11:51:05 42.7306 -89.7122 111° Southeast 400 460 24,300 -634 Descending Chicago Center
Sat 11:52:06 42.6814 -89.5825 117° Southeast 389 448 23,700 -1,220 Descending Chicago Center
Sat 11:53:08 42.5819 -89.4886 145° Southeast 375 432 21,800 -2,129 Descending Chicago Center
Sat 11:54:10 42.4947 -89.4139 148° Southeast 371 427 19,300 -2,419 Descending Chicago Center
Sat 11:55:12 42.4314 -89.3142 131° Southeast 374 430 16,800 -2,177 Descending Chicago Center
Sat 11:56:14 42.4206 -89.1672 96° East 393 452 14,800 -1,854 Descending Chicago Center
Sat 11:57:15 42.4103 -89.0186 95° East 399 459 13,000 -1,512 Descending Chicago Center
Sat 11:58:17 42.4011 -88.8811 95° East 375 432 11,700 -1,210 Descending Chicago Center
Sat 11:59:19 42.3903 -88.7194 95° East 372 428 10,500 -823 Descending Chicago Center
Sat 12:00:21 42.3806 -88.5844 96° East 366 421 10,000 -242 Descending Chicago Center
Sat 12:01:23 42.3617 -88.4511 101° East 365 420 10,000  Level Chicago Center
Sat 12:02:25 42.3075 -88.3319 122° Southeast 364 419 10,000  Level Chicago Center
Sat 12:03:26 42.2414 -88.2231 129° Southeast 374 430 10,000 -49 Level Chicago Center
Sat 12:04:28 42.1789 -88.1253 131° Southeast 350 403 9,900 -824 Descending Chicago Center
Sat 12:05:37 42.1000 -88.0333 139° Southeast 304 350 8,200 -1,302 Descending Chicago TRACON
Sat 12:06:37 42.1000 -87.9333 90° East 282 325 7,100 -600 Descending Chicago TRACON
Sat 12:07:37 42.0833 -87.8167 101° East 284 327 7,000 -650 Descending Chicago TRACON
Sat 12:08:37 42.0833 -87.7167 90° East 261 300 5,800 -1,053 Descending Chicago TRACON
Sat 12:09:31 42.0833 -87.6333 90° East 252 290 5,000 -895 Descending Chicago TRACON
Sat 12:10:31 42.0833 -87.5500 90° East 234 269 4,100 -526 Descending Chicago TRACON
Sat 12:11:25 42.0833 -87.4667 90° East 243 280 4,000 -86 Descending Chicago TRACON
Sat 12:11:41 42.0914 -87.4603 30° Northeast 236 272 4,000  Level Chicago Center
Sat 12:12:43 42.0519 -87.4122 138° Southeast 234 269 4,000  Level Chicago Center
Sat 12:13:45 42.0147 -87.4814 234° Southwest 214 246 4,000  Level Chicago Center
Sat 12:14:47 42.0031 -87.5581 258° West 210 242 4,000  Level Chicago Center
Sat 12:15:48 42.0025 -87.6267 269° West 198 228 4,000  Level Chicago Center

Login

Don't have an account? Register now (free) for customized features, flight alerts, and more!